Time;durP1;ratioP1;P1;durP2;ratioP2;P2;SDS_P1;SDS_P2;PMS_P1;PMS_P2;Temp;Humidity;BMP_temperature;BMP_pressure;BME280_temperature;BME280_humidity;BME280_pressure;Samples;Min_cycle;Max_cycle;Signal;HPM_P1;HPM_P2
2021/04/07 00:00:55;;;;;;;1.75;1.60;;;2.50;41.60;;;;;;6262561;22;20210;-77
2021/04/07 00:03:21;;;;;;;3.63;2.20;;;2.50;41.80;;;;;;6263484;23;20208;-79
2021/04/07 00:05:48;;;;;;;1.50;1.33;;;2.40;41.90;;;;;;6267841;23;20172;-79
2021/04/07 00:08:20;;;;;;;2.30;1.85;;;2.40;42.50;;;;;;6264294;23;20174;-78
2021/04/07 00:10:47;;;;;;;2.00;1.80;;;2.30;43.00;;;;;;6262559;22;20193;-78
2021/04/07 00:13:15;;;;;;;3.92;1.90;;;2.50;43.00;;;;;;6262473;23;20174;-77
2021/04/07 00:15:43;;;;;;;4.70;2.20;;;2.30;43.50;;;;;;6262278;23;20174;-78
2021/04/07 00:18:10;;;;;;;2.20;1.70;;;2.30;43.50;;;;;;6262059;23;20615;-77
2021/04/07 00:20:37;;;;;;;5.68;2.50;;;2.30;43.50;;;;;;6247490;22;20726;-77
2021/04/07 00:23:04;;;;;;;9.30;2.45;;;2.30;43.50;;;;;;6298722;22;20203;-86
2021/04/07 00:25:31;;;;;;;3.55;2.33;;;2.20;43.40;;;;;;6332710;22;20187;-81
2021/04/07 00:27:59;;;;;;;5.20;2.63;;;2.20;43.40;;;;;;6333265;22;20164;-83
2021/04/07 00:30:27;;;;;;;4.35;3.05;;;2.20;44.20;;;;;;6333377;22;20172;-84
2021/04/07 00:32:55;;;;;;;3.25;2.55;;;2.20;44.20;;;;;;6313912;22;20197;-85
2021/04/07 00:35:22;;;;;;;4.32;2.50;;;2.10;44.60;;;;;;6299166;22;20184;-83
2021/04/07 00:37:48;;;;;;;7.20;3.08;;;2.10;44.50;;;;;;6282737;22;20641;-84
2021/04/07 00:40:16;;;;;;;2.58;2.38;;;2.00;44.70;;;;;;6282928;22;20204;-83
2021/04/07 00:42:44;;;;;;;3.42;2.50;;;2.00;44.90;;;;;;6280812;22;20200;-84
2021/04/07 00:45:11;;;;;;;4.45;2.95;;;2.00;45.30;;;;;;6280440;22;20618;-83
2021/04/07 00:47:38;;;;;;;2.30;2.10;;;2.00;45.40;;;;;;6281107;22;20275;-83
2021/04/07 00:50:08;;;;;;;4.88;2.75;;;2.00;45.30;;;;;;6285595;22;20203;-83
2021/04/07 00:52:34;;;;;;;3.20;2.85;;;2.00;45.40;;;;;;6295348;22;20201;-82
2021/04/07 00:55:01;;;;;;;2.90;2.38;;;2.00;45.60;;;;;;6288122;22;20169;-83
2021/04/07 00:57:28;;;;;;;3.53;2.22;;;2.00;45.70;;;;;;6282794;22;20223;-82
2021/04/07 00:59:55;;;;;;;3.55;2.65;;;2.00;45.90;;;;;;6281073;22;20200;-82
2021/04/07 01:02:22;;;;;;;4.32;2.78;;;1.90;46.10;;;;;;6280201;22;20318;-82
2021/04/07 01:04:50;;;;;;;5.13;3.03;;;1.90;46.30;;;;;;6280049;22;20216;-81
2021/04/07 01:07:18;;;;;;;6.32;2.83;;;2.00;46.60;;;;;;6285828;22;20269;-81
2021/04/07 01:09:45;;;;;;;3.50;3.03;;;1.90;46.60;;;;;;6282083;22;20199;-82
2021/04/07 01:12:12;;;;;;;3.40;3.10;;;1.90;47.10;;;;;;6281289;22;20282;-82
2021/04/07 01:14:38;;;;;;;6.90;3.22;;;2.00;47.30;;;;;;6282712;22;20181;-82
2021/04/07 01:17:06;;;;;;;3.22;2.92;;;2.00;47.10;;;;;;6283192;22;20210;-82
2021/04/07 01:19:33;;;;;;;4.18;3.78;;;2.00;47.10;;;;;;6282803;22;20197;-82
2021/04/07 01:22:00;;;;;;;6.05;4.07;;;1.90;47.30;;;;;;6299201;22;20288;-85
2021/04/07 01:24:28;;;;;;;4.53;3.45;;;2.00;47.90;;;;;;6302131;22;20184;-84
2021/04/07 01:26:55;;;;;;;3.85;3.20;;;2.00;48.00;;;;;;6300592;22;20178;-82
2021/04/07 01:29:21;;;;;;;4.47;3.05;;;1.90;47.90;;;;;;6301805;22;20170;-83
2021/04/07 01:31:49;;;;;;;4.90;3.88;;;1.90;48.00;;;;;;6299871;22;20231;-83
2021/04/07 01:34:20;;;;;;;4.68;3.90;;;1.90;48.80;;;;;;6284173;22;20188;-81
2021/04/07 01:36:46;;;;;;;3.78;3.40;;;1.90;49.00;;;;;;6286792;22;20189;-82
2021/04/07 01:39:13;;;;;;;6.82;4.00;;;1.80;48.80;;;;;;6287155;22;20245;-81
2021/04/07 01:41:41;;;;;;;5.30;3.97;;;1.80;49.10;;;;;;6286763;22;20241;-82
2021/04/07 01:44:08;;;;;;;6.90;4.00;;;1.80;49.70;;;;;;6286818;22;20585;-83
2021/04/07 01:46:35;;;;;;;4.10;3.70;;;1.80;49.90;;;;;;6297001;22;20227;-82
2021/04/07 01:49:04;;;;;;;6.03;3.80;;;1.80;49.40;;;;;;6301274;22;20199;-84
2021/04/07 01:51:36;;;;;;;4.78;3.90;;;1.80;49.40;;;;;;6294852;22;20169;-84
2021/04/07 01:54:05;;;;;;;5.45;3.58;;;1.80;49.40;;;;;;6300520;22;20177;-82
2021/04/07 01:56:32;;;;;;;5.78;4.15;;;1.80;49.40;;;;;;6303279;22;20177;-83
2021/04/07 01:59:01;;;;;;;6.80;3.85;;;1.80;49.40;;;;;;6295993;22;20173;-81
2021/04/07 02:01:28;;;;;;;6.95;4.00;;;1.80;49.80;;;;;;6281371;22;20177;-82
2021/04/07 02:03:55;;;;;;;6.90;4.15;;;1.80;49.80;;;;;;6281224;22;20582;-82
2021/04/07 02:06:21;;;;;;;4.55;3.70;;;1.70;50.10;;;;;;6279604;22;20227;-82
2021/04/07 02:08:48;;;;;;;6.60;3.40;;;1.70;50.10;;;;;;6279115;22;20200;-82
2021/04/07 02:11:15;;;;;;;5.55;3.63;;;1.80;50.10;;;;;;6279967;22;20215;-81
2021/04/07 02:13:42;;;;;;;4.38;3.10;;;1.80;49.60;;;;;;6281718;22;20223;-83
2021/04/07 02:16:13;;;;;;;5.00;3.13;;;1.80;49.40;;;;;;6285403;22;20184;-83
2021/04/07 02:18:41;;;;;;;5.43;3.22;;;1.80;49.30;;;;;;6282387;22;20173;-82
2021/04/07 02:21:08;;;;;;;5.47;3.30;;;1.80;49.00;;;;;;6283467;22;20201;-83
2021/04/07 02:23:35;;;;;;;6.10;3.30;;;1.80;49.40;;;;;;6285170;22;20288;-82
2021/04/07 02:26:01;;;;;;;5.18;2.85;;;1.80;49.50;;;;;;6284013;22;20193;-82
2021/04/07 02:28:28;;;;;;;4.28;2.97;;;1.80;49.50;;;;;;6283709;22;20188;-82
2021/04/07 02:30:54;;;;;;;5.00;2.92;;;1.80;49.20;;;;;;6285553;22;20219;-82
2021/04/07 02:33:21;;;;;;;3.20;2.65;;;1.80;48.70;;;;;;6288957;22;20204;-81
2021/04/07 02:35:48;;;;;;;3.65;2.58;;;1.80;48.70;;;;;;6297745;22;20185;-83
2021/04/07 02:38:15;;;;;;;3.35;3.03;;;1.80;49.00;;;;;;6289625;22;20184;-83
2021/04/07 02:40:42;;;;;;;3.85;3.20;;;1.80;49.40;;;;;;6288584;22;20212;-85
2021/04/07 02:43:08;;;;;;;4.88;3.28;;;1.90;49.50;;;;;;6285634;22;20663;-82
2021/04/07 02:45:35;;;;;;;3.33;2.80;;;1.80;49.50;;;;;;6289588;22;20215;-83
2021/04/07 02:48:02;;;;;;;6.60;3.13;;;1.90;49.60;;;;;;6292904;22;20207;-83
2021/04/07 02:50:29;;;;;;;2.95;2.65;;;1.90;49.50;;;;;;6296827;22;20177;-85
2021/04/07 02:52:55;;;;;;;4.30;3.05;;;1.90;49.60;;;;;;6293161;22;20204;-82
2021/04/07 02:55:22;;;;;;;6.40;3.63;;;1.80;49.50;;;;;;6294637;22;20201;-82
2021/04/07 02:57:49;;;;;;;3.53;2.75;;;1.80;49.60;;;;;;6293116;22;20250;-82
2021/04/07 03:00:17;;;;;;;4.43;3.38;;;1.90;49.70;;;;;;6292173;22;20197;-81
2021/04/07 03:02:43;;;;;;;6.28;3.13;;;1.90;49.40;;;;;;6292871;22;20208;-82
2021/04/07 03:05:10;;;;;;;4.30;3.00;;;1.90;49.20;;;;;;6297120;22;20223;-82
2021/04/07 03:07:41;;;;;;;6.22;3.67;;;1.90;49.20;;;;;;6298995;22;20193;-83
2021/04/07 03:10:10;;;;;;;3.38;3.00;;;1.80;50.30;;;;;;6299124;22;20177;-83
2021/04/07 03:12:36;;;;;;;5.45;3.58;;;1.80;50.00;;;;;;6296592;22;20184;-82
2021/04/07 03:15:04;;;;;;;3.13;2.47;;;1.90;50.00;;;;;;6301387;22;20165;-83
2021/04/07 03:17:30;;;;;;;3.88;3.50;;;1.90;49.40;;;;;;6301249;22;20433;-83
2021/04/07 03:19:57;;;;;;;3.85;2.90;;;1.90;49.00;;;;;;6300011;22;20195;-81
2021/04/07 03:22:23;;;;;;;3.33;3.00;;;1.80;49.20;;;;;;6302150;22;20209;-81
2021/04/07 03:24:50;;;;;;;5.85;3.70;;;1.80;49.00;;;;;;6302193;22;20177;-83
2021/04/07 03:27:20;;;;;;;4.65;3.00;;;1.80;49.20;;;;;;6300131;22;20207;-82
2021/04/07 03:29:46;;;;;;;8.02;3.15;;;1.80;49.20;;;;;;6291962;22;20165;-82
2021/04/07 03:32:13;;;;;;;3.75;3.40;;;1.80;49.00;;;;;;6291732;22;20205;-81
2021/04/07 03:34:39;;;;;;;5.13;3.33;;;1.80;49.40;;;;;;6302652;22;20165;-83
2021/04/07 03:37:06;;;;;;;5.65;3.50;;;1.80;49.60;;;;;;6302942;22;20165;-82
2021/04/07 03:39:32;;;;;;;7.15;3.50;;;1.80;49.60;;;;;;6303164;22;20231;-84
2021/04/07 03:42:00;;;;;;;4.00;3.15;;;1.70;49.60;;;;;;6303226;22;20192;-81
2021/04/07 03:44:26;;;;;;;6.32;3.50;;;1.80;49.80;;;;;;6302408;22;20153;-83
2021/04/07 03:46:53;;;;;;;4.57;3.40;;;1.80;49.60;;;;;;6303717;22;20172;-83
2021/04/07 03:49:20;;;;;;;5.70;3.72;;;1.70;49.40;;;;;;6299726;22;20188;-82
2021/04/07 03:51:46;;;;;;;3.95;3.13;;;1.70;49.40;;;;;;6292815;22;20478;-84
2021/04/07 03:54:12;;;;;;;7.40;3.80;;;1.70;49.40;;;;;;6290276;22;20196;-83
2021/04/07 03:56:39;;;;;;;4.85;3.53;;;1.70;49.30;;;;;;6289861;22;20185;-84
2021/04/07 03:59:07;;;;;;;6.00;4.00;;;1.70;49.40;;;;;;6291320;22;20177;-83
2021/04/07 04:01:33;;;;;;;5.57;3.95;;;1.60;49.70;;;;;;6288807;22;20190;-83
2021/04/07 04:04:00;;;;;;;4.70;3.15;;;1.60;49.90;;;;;;6287786;22;20205;-84
2021/04/07 04:06:26;;;;;;;4.18;3.22;;;1.60;50.00;;;;;;6286176;22;20649;-83
2021/04/07 04:08:53;;;;;;;6.30;3.58;;;1.50;49.70;;;;;;6285006;22;20169;-84
2021/04/07 04:11:20;;;;;;;5.22;3.40;;;1.50;50.50;;;;;;6290760;22;20279;-84
2021/04/07 04:13:46;;;;;;;5.80;3.90;;;1.60;49.90;;;;;;6282750;22;20204;-84
2021/04/07 04:16:14;;;;;;;4.72;3.30;;;1.50;49.90;;;;;;6286603;22;20173;-84
2021/04/07 04:18:40;;;;;;;3.83;3.42;;;1.60;50.00;;;;;;6278842;22;20227;-82
2021/04/07 04:21:07;;;;;;;4.88;3.45;;;1.60;50.10;;;;;;6278009;22;20240;-82
2021/04/07 04:23:33;;;;;;;6.45;3.20;;;1.60;50.30;;;;;;6277577;22;20201;-82
2021/04/07 04:26:00;;;;;;;5.32;3.25;;;1.50;50.40;;;;;;6279721;22;20181;-83
2021/04/07 04:28:26;;;;;;;4.35;3.70;;;1.60;50.50;;;;;;6283298;22;20179;-85
2021/04/07 04:30:53;;;;;;;4.38;3.80;;;1.50;50.10;;;;;;6280675;22;20177;-83
2021/04/07 04:33:20;;;;;;;5.45;4.00;;;1.50;50.40;;;;;;6280871;22;20205;-84
2021/04/07 04:35:46;;;;;;;5.78;3.83;;;1.50;50.30;;;;;;6289858;22;20173;-82
2021/04/07 04:38:13;;;;;;;3.75;3.25;;;1.50;50.40;;;;;;6288925;22;20180;-82
2021/04/07 04:40:40;;;;;;;4.95;3.47;;;1.50;50.40;;;;;;6280096;22;20196;-82
2021/04/07 04:43:06;;;;;;;5.05;3.40;;;1.50;50.30;;;;;;6283176;22;20528;-83
2021/04/07 04:45:35;;;;;;;9.52;3.65;;;1.50;50.00;;;;;;6280337;22;20201;-83
2021/04/07 04:48:03;;;;;;;4.75;3.50;;;1.50;50.10;;;;;;6280612;22;20207;-82
2021/04/07 04:50:30;;;;;;;5.20;3.70;;;1.50;50.10;;;;;;6297962;22;20203;-82
2021/04/07 04:52:57;;;;;;;5.32;3.25;;;1.60;49.90;;;;;;6291923;22;20197;-82
2021/04/07 04:55:23;;;;;;;5.50;3.83;;;1.60;49.80;;;;;;6299808;22;20635;-82
2021/04/07 04:57:50;;;;;;;8.73;4.00;;;1.60;49.60;;;;;;6301598;22;20166;-82
2021/04/07 05:00:17;;;;;;;7.10;3.85;;;1.60;49.60;;;;;;6294685;22;20635;-81
2021/04/07 05:02:43;;;;;;;4.45;3.72;;;1.50;49.70;;;;;;6290962;22;20256;-81
2021/04/07 05:05:11;;;;;;;8.43;3.70;;;1.50;49.90;;;;;;6291897;22;20510;-85
2021/04/07 05:07:39;;;;;;;8.35;3.30;;;1.50;49.80;;;;;;6279350;22;20173;-82
2021/04/07 05:10:06;;;;;;;5.65;3.65;;;1.50;49.70;;;;;;6281232;22;20232;-84
2021/04/07 05:12:35;;;;;;;8.55;3.53;;;1.50;49.80;;;;;;6285251;22;20291;-82
2021/04/07 05:15:02;;;;;;;5.68;3.72;;;1.50;49.60;;;;;;6288370;22;20185;-81
2021/04/07 05:17:29;;;;;;;5.35;3.22;;;1.40;49.50;;;;;;6281177;22;20184;-81
2021/04/07 05:19:56;;;;;;;8.48;4.03;;;1.30;49.80;;;;;;6285872;22;20281;-82
2021/04/07 05:22:22;;;;;;;5.55;3.80;;;1.20;50.00;;;;;;6285641;22;20216;-81
2021/04/07 05:24:49;;;;;;;5.43;3.38;;;1.20;50.40;;;;;;6283797;22;20177;-82
2021/04/07 05:27:16;;;;;;;5.18;3.60;;;1.10;50.30;;;;;;6286880;22;20628;-84
2021/04/07 05:29:42;;;;;;;7.30;3.65;;;1.20;49.90;;;;;;6297908;22;20204;-84
2021/04/07 05:32:09;;;;;;;6.20;3.67;;;1.20;49.80;;;;;;6290969;22;20200;-83
2021/04/07 05:34:35;;;;;;;4.13;3.17;;;1.30;49.00;;;;;;6287069;22;20485;-84
2021/04/07 05:37:02;;;;;;;8.50;3.50;;;1.40;48.80;;;;;;6286441;22;20181;-83
2021/04/07 05:39:28;;;;;;;4.65;3.20;;;1.50;48.10;;;;;;6286432;22;20265;-83
2021/04/07 05:41:56;;;;;;;4.78;3.30;;;1.70;47.80;;;;;;6289772;22;20528;-83
2021/04/07 05:44:22;;;;;;;4.75;3.45;;;1.90;46.90;;;;;;6291980;22;20189;-84
2021/04/07 05:46:49;;;;;;;4.82;3.20;;;1.80;45.90;;;;;;6304519;22;20178;-84
2021/04/07 05:49:15;;;;;;;5.22;3.60;;;1.80;46.00;;;;;;6304151;22;20161;-86
2021/04/07 05:51:42;;;;;;;4.05;3.30;;;2.00;44.90;;;;;;6303116;22;20181;-88
2021/04/07 05:54:08;;;;;;;5.85;3.50;;;2.20;44.40;;;;;;6303573;22;20169;-88
2021/04/07 05:56:36;;;;;;;7.45;2.75;;;2.70;43.90;;;;;;6300478;22;20177;-84
2021/04/07 05:59:03;;;;;;;7.32;2.97;;;2.90;41.70;;;;;;6289588;22;20181;-84
2021/04/07 06:01:30;;;;;;;5.60;2.97;;;3.20;41.10;;;;;;6284178;22;20201;-81
2021/04/07 06:03:57;;;;;;;11.00;5.72;;;3.40;39.60;;;;;;6288313;22;20177;-84
2021/04/07 06:06:24;;;;;;;7.25;3.72;;;3.30;39.60;;;;;;6294119;22;20177;-84
2021/04/07 06:08:50;;;;;;;3.80;3.15;;;3.20;39.90;;;;;;6292441;22;20188;-82
2021/04/07 06:11:18;;;;;;;5.80;3.38;;;3.20;40.20;;;;;;6285282;22;20285;-82
2021/04/07 06:13:45;;;;;;;3.42;3.13;;;3.00;40.50;;;;;;6287632;22;20197;-82
2021/04/07 06:16:13;;;;;;;3.53;2.70;;;2.90;41.00;;;;;;6283948;22;20211;-81
2021/04/07 06:18:40;;;;;;;4.32;3.25;;;2.90;41.30;;;;;;6286460;22;20182;-83
2021/04/07 06:21:07;;;;;;;3.90;3.20;;;2.90;41.80;;;;;;6285027;22;20193;-84
2021/04/07 06:23:34;;;;;;;4.10;2.80;;;3.00;41.60;;;;;;6286375;22;20208;-85
2021/04/07 06:26:03;;;;;;;3.95;3.03;;;3.00;42.00;;;;;;6291051;22;20177;-86
2021/04/07 06:28:30;;;;;;;6.93;3.50;;;3.00;41.70;;;;;;6285629;22;20178;-84
2021/04/07 06:30:56;;;;;;;5.30;3.38;;;3.10;41.40;;;;;;6289922;22;20173;-83
2021/04/07 06:33:25;;;;;;;3.15;2.50;;;3.10;41.10;;;;;;6283282;22;20197;-83
2021/04/07 06:35:55;;;;;;;5.47;2.75;;;3.20;40.40;;;;;;6298073;22;20154;-83
2021/04/07 06:38:22;;;;;;;4.35;3.00;;;3.00;40.60;;;;;;6291852;22;20223;-84
2021/04/07 06:40:49;;;;;;;5.35;4.18;;;3.10;40.60;;;;;;6284317;22;20255;-85
2021/04/07 06:43:18;;;;;;;2.53;2.03;;;2.90;40.90;;;;;;6287191;22;20217;-85
2021/04/07 06:45:45;;;;;;;4.60;3.10;;;2.90;41.40;;;;;;6284110;22;20181;-83
2021/04/07 06:48:13;;;;;;;4.53;3.00;;;2.80;41.20;;;;;;6263443;22;20215;-83
2021/04/07 06:50:42;;;;;;;3.65;2.58;;;2.80;41.30;;;;;;6302169;22;20165;-82
2021/04/07 06:53:10;;;;;;;4.20;2.72;;;3.00;40.60;;;;;;6300122;22;20196;-82
2021/04/07 06:55:39;;;;;;;3.47;2.45;;;3.10;40.40;;;;;;6299037;22;20240;-83
2021/04/07 06:58:07;;;;;;;8.73;2.67;;;3.20;40.00;;;;;;6302493;22;20174;-83
2021/04/07 07:00:35;;;;;;;2.80;2.22;;;3.30;39.60;;;;;;6302898;22;20191;-82
2021/04/07 07:03:03;;;;;;;3.33;2.33;;;3.30;38.60;;;;;;6303264;22;20200;-81
2021/04/07 07:05:30;;;;;;;5.72;2.30;;;3.30;38.20;;;;;;6303479;22;20254;-84
2021/04/07 07:08:03;;;;;;;3.60;2.03;;;3.20;37.00;;;;;;6302611;22;20157;-82
2021/04/07 07:10:40;;;;;;;2.72;2.35;;;3.00;37.20;;;;;;6302484;22;20173;-84
2021/04/07 07:13:09;;;;;;;5.38;2.65;;;3.00;37.50;;;;;;6303197;22;20181;-83
2021/04/07 07:15:35;;;;;;;6.63;2.95;;;3.00;37.90;;;;;;6302621;22;20172;-81
2021/04/07 07:18:03;;;;;;;4.35;2.40;;;3.00;37.90;;;;;;6296494;22;20173;-82
2021/04/07 07:20:31;;;;;;;2.97;2.35;;;3.10;38.00;;;;;;6291087;22;20197;-83
2021/04/07 07:22:58;;;;;;;3.05;2.40;;;3.10;38.00;;;;;;6290925;22;20239;-85
2021/04/07 07:25:27;;;;;;;5.57;2.70;;;3.10;38.00;;;;;;6302746;22;20165;-81
2021/04/07 07:28:01;;;;;;;5.63;2.22;;;3.10;38.00;;;;;;6302632;22;20183;-82
2021/04/07 07:30:50;;;;;;;4.43;2.60;;;3.00;38.40;;;;;;6302141;22;20161;-81
2021/04/07 07:33:18;;;;;;;4.13;2.67;;;2.90;38.80;;;;;;6287721;22;20253;-80
2021/04/07 07:35:46;;;;;;;3.60;2.72;;;3.00;38.60;;;;;;6286501;22;20184;-85
2021/04/07 07:38:20;;;;;;;6.30;2.95;;;3.00;38.10;;;;;;6289317;22;20184;-82
2021/04/07 07:40:48;;;;;;;2.67;2.47;;;3.20;38.20;;;;;;6292374;22;20203;-82
2021/04/07 07:43:16;;;;;;;3.03;2.72;;;3.40;37.70;;;;;;6283891;22;20208;-81
2021/04/07 07:45:43;;;;;;;5.70;2.65;;;3.70;36.70;;;;;;6282031;22;20501;-80
2021/04/07 07:48:14;;;;;;;4.80;3.10;;;3.80;36.40;;;;;;6286366;22;20230;-85
2021/04/07 07:50:43;;;;;;;4.88;2.63;;;3.80;36.60;;;;;;6295010;22;20256;-86
2021/04/07 07:53:18;;;;;;;4.65;3.25;;;3.60;36.30;;;;;;6295354;22;20197;-86
2021/04/07 07:55:49;;;;;;;4.40;2.90;;;3.60;36.40;;;;;;6289485;22;20252;-80
2021/04/07 07:58:15;;;;;;;7.55;3.85;;;3.60;36.20;;;;;;6298661;22;20571;-84
2021/04/07 08:00:44;;;;;;;3.63;3.05;;;3.70;36.60;;;;;;6300880;22;20264;-83
2021/04/07 08:03:13;;;;;;;4.93;3.22;;;3.80;35.10;;;;;;6302562;22;20201;-82
2021/04/07 08:05:40;;;;;;;7.22;3.45;;;3.70;35.00;;;;;;6299654;22;20165;-81
2021/04/07 08:08:08;;;;;;;4.88;3.60;;;3.70;35.50;;;;;;6299446;22;20173;-82
2021/04/07 08:10:37;;;;;;;5.13;3.40;;;3.70;35.60;;;;;;6301409;22;20199;-83
2021/04/07 08:13:08;;;;;;;3.25;2.40;;;3.80;35.10;;;;;;6298174;22;20212;-83
2021/04/07 08:15:35;;;;;;;3.58;3.20;;;3.70;35.40;;;;;;6295927;22;20166;-83
2021/04/07 08:18:02;;;;;;;9.02;2.95;;;3.70;35.80;;;;;;6301803;22;20149;-83
2021/04/07 08:20:29;;;;;;;6.20;2.95;;;3.70;36.00;;;;;;6301696;22;20201;-85
2021/04/07 08:22:58;;;;;;;4.97;3.45;;;3.70;36.00;;;;;;6301116;22;20497;-82
2021/04/07 08:25:26;;;;;;;6.38;3.40;;;3.70;35.80;;;;;;6300054;22;20177;-83
2021/04/07 08:27:54;;;;;;;4.85;3.85;;;3.80;36.00;;;;;;6302984;22;20169;-82
2021/04/07 08:30:28;;;;;;;5.65;3.28;;;3.90;35.40;;;;;;6302791;22;20184;-84
2021/04/07 08:32:55;;;;;;;2.95;2.75;;;4.00;35.30;;;;;;6302947;22;20208;-84
2021/04/07 08:35:25;;;;;;;4.97;3.30;;;3.90;35.20;;;;;;6303477;22;20178;-84
2021/04/07 08:38:04;;;;;;;5.95;3.40;;;4.20;35.50;;;;;;6302900;22;20179;-84
2021/04/07 08:40:40;;;;;;;7.38;3.40;;;4.50;35.70;;;;;;6300723;22;20201;-83
2021/04/07 08:43:07;;;;;;;4.15;3.20;;;4.60;33.90;;;;;;6296801;22;20196;-81
2021/04/07 08:45:45;;;;;;;3.83;3.05;;;4.50;33.90;;;;;;6299832;22;20207;-82
2021/04/07 08:48:21;;;;;;;4.05;3.05;;;4.50;34.10;;;;;;6296592;22;20169;-83
2021/04/07 08:50:49;;;;;;;4.22;3.00;;;4.70;34.20;;;;;;6300121;22;20450;-81
2021/04/07 08:53:17;;;;;;;3.67;3.30;;;4.60;34.00;;;;;;6300808;22;20201;-82
2021/04/07 08:55:52;;;;;;;4.43;3.80;;;4.60;33.70;;;;;;6298142;22;20172;-82
2021/04/07 08:58:24;;;;;;;5.25;3.30;;;4.30;34.70;;;;;;6296206;22;20230;-80
2021/04/07 09:00:54;;;;;;;4.45;2.80;;;4.30;33.40;;;;;;6303070;22;20232;-82
2021/04/07 09:03:25;;;;;;;2.85;2.65;;;4.40;33.30;;;;;;6303753;22;20257;-81
2021/04/07 09:05:53;;;;;;;4.47;3.22;;;4.50;32.60;;;;;;6298427;22;20201;-83
2021/04/07 09:08:30;;;;;;;5.53;3.05;;;4.60;32.40;;;;;;6301788;22;20176;-82
2021/04/07 09:11:31;;;;;;;11.98;3.63;;;4.60;32.50;;;;;;6303429;22;20227;-85
2021/04/07 09:19:18;;;;;;;4.65;2.72;;;4.40;33.00;;;;;;6330347;22;20203;-83
2021/04/07 09:21:56;;;;;;;7.07;3.38;;;4.60;33.70;;;;;;6331467;22;20180;-83
2021/04/07 09:24:27;;;;;;;5.57;2.90;;;4.60;32.50;;;;;;6300656;22;20166;-83
2021/04/07 09:26:55;;;;;;;4.68;3.30;;;4.50;32.10;;;;;;6297936;22;20184;-82
2021/04/07 09:29:22;;;;;;;3.90;3.00;;;4.40;32.20;;;;;;6295875;22;20192;-85
2021/04/07 09:31:51;;;;;;;3.88;2.88;;;4.40;32.70;;;;;;6299305;22;20165;-85
2021/04/07 09:34:24;;;;;;;4.38;2.03;;;4.20;33.10;;;;;;6299809;22;20181;-81
2021/04/07 09:36:50;;;;;;;9.68;2.95;;;4.30;32.40;;;;;;6299220;22;20611;-81
2021/04/07 09:39:23;;;;;;;4.80;2.33;;;4.30;32.70;;;;;;6300992;22;20181;-84
2021/04/07 09:41:49;;;;;;;4.82;2.67;;;4.20;32.90;;;;;;6302937;22;20197;-83
2021/04/07 09:44:18;;;;;;;3.83;2.50;;;4.00;32.80;;;;;;6303222;22;20187;-83
2021/04/07 09:46:50;;;;;;;4.22;2.30;;;3.90;33.40;;;;;;6302431;22;20189;-82
2021/04/07 09:49:17;;;;;;;6.32;2.80;;;4.10;33.50;;;;;;6303040;22;20168;-83
2021/04/07 09:51:46;;;;;;;7.28;2.63;;;4.40;33.00;;;;;;6303024;22;20161;-83
2021/04/07 09:54:17;;;;;;;4.43;2.30;;;4.70;32.10;;;;;;6298718;22;20184;-81
2021/04/07 09:56:54;;;;;;;6.25;3.20;;;4.80;31.60;;;;;;6303890;22;20173;-84
2021/04/07 09:59:30;;;;;;;4.47;2.60;;;4.90;31.50;;;;;;6302796;22;20175;-83
2021/04/07 10:01:57;;;;;;;5.43;2.35;;;5.00;31.50;;;;;;6301320;22;20248;-86
2021/04/07 10:04:26;;;;;;;7.22;2.70;;;5.10;31.10;;;;;;6297722;22;20232;-84
2021/04/07 10:06:53;;;;;;;4.75;2.42;;;5.10;30.70;;;;;;6295205;22;20162;-81
2021/04/07 10:09:29;;;;;;;2.97;2.13;;;5.20;30.60;;;;;;6298051;22;20299;-84
2021/04/07 10:11:58;;;;;;;5.25;3.10;;;5.10;30.80;;;;;;6303132;22;20185;-83
2021/04/07 10:14:26;;;;;;;5.88;2.63;;;5.20;31.10;;;;;;6303783;22;20239;-84
2021/04/07 10:16:52;;;;;;;4.18;2.75;;;5.30;30.70;;;;;;6303314;22;20221;-83
2021/04/07 10:19:19;;;;;;;7.20;2.70;;;5.40;30.30;;;;;;6304583;22;20191;-85
2021/04/07 10:21:46;;;;;;;2.75;2.53;;;5.60;30.40;;;;;;6303840;22;20185;-83
2021/04/07 10:24:16;;;;;;;2.97;2.67;;;5.60;29.80;;;;;;6303736;22;20170;-83
2021/04/07 10:26:44;;;;;;;6.22;3.20;;;5.80;29.90;;;;;;6301138;22;20172;-83
2021/04/07 10:29:24;;;;;;;3.97;2.80;;;5.60;30.10;;;;;;6297752;22;20182;-82
2021/04/07 10:31:52;;;;;;;3.42;2.78;;;5.80;30.00;;;;;;6302604;22;20199;-83
2021/04/07 10:34:29;;;;;;;2.95;2.50;;;5.80;29.80;;;;;;6298794;22;20173;-83
2021/04/07 10:36:55;;;;;;;4.50;2.90;;;5.80;30.40;;;;;;6295562;22;20153;-84
2021/04/07 10:39:24;;;;;;;5.80;2.72;;;6.30;29.20;;;;;;6301537;22;20177;-83
2021/04/07 10:41:52;;;;;;;5.28;2.50;;;6.70;28.20;;;;;;6299180;22;20188;-84
2021/04/07 10:44:24;;;;;;;7.15;2.60;;;6.90;28.40;;;;;;6297117;22;20624;-83
2021/04/07 10:46:51;;;;;;;8.95;2.30;;;6.80;27.50;;;;;;6303930;22;20195;-85
2021/04/07 10:49:19;;;;;;;5.97;2.67;;;6.50;27.10;;;;;;6302005;22;20177;-85
2021/04/07 10:51:58;;;;;;;8.60;3.10;;;6.10;27.80;;;;;;6300475;22;20178;-86
2021/04/07 10:54:28;;;;;;;4.90;2.03;;;6.10;27.80;;;;;;6299216;22;20186;-84
2021/04/07 10:57:06;;;;;;;9.80;2.50;;;6.00;27.80;;;;;;6300154;22;20256;-88
2021/04/07 10:59:36;;;;;;;3.03;2.05;;;6.00;27.80;;;;;;6243354;22;20191;-86
2021/04/07 11:04:41;;;;;;;4.95;2.10;;;5.90;27.70;;;;;;6290472;22;20207;-87
2021/04/07 11:07:12;;;;;;;3.75;1.85;;;5.60;27.50;;;;;;6332368;22;20180;-85
2021/04/07 11:09:46;;;;;;;6.32;2.58;;;5.30;28.80;;;;;;6331735;22;20161;-83
2021/04/07 11:12:15;;;;;;;6.65;2.78;;;5.30;28.50;;;;;;6319164;22;20197;-83
2021/04/07 11:14:49;;;;;;;4.30;2.45;;;5.40;28.70;;;;;;6293966;22;20180;-84
2021/04/07 11:17:18;;;;;;;4.03;2.10;;;5.40;27.90;;;;;;6295561;22;20173;-81
2021/04/07 11:19:46;;;;;;;6.95;1.90;;;5.40;27.30;;;;;;6295508;22;20191;-84
2021/04/07 11:22:13;;;;;;;4.18;1.92;;;5.30;28.00;;;;;;6294874;22;20197;-82
2021/04/07 11:24:41;;;;;;;5.25;1.80;;;5.10;29.40;;;;;;6293796;22;20177;-83
2021/04/07 11:27:08;;;;;;;8.35;2.25;;;5.10;28.70;;;;;;6293795;22;20177;-81
2021/04/07 11:29:36;;;;;;;3.45;1.77;;;5.00;28.40;;;;;;6295983;22;20177;-80
2021/04/07 11:32:03;;;;;;;6.25;1.65;;;5.10;28.00;;;;;;6302006;22;20196;-81
2021/04/07 11:34:34;;;;;;;2.58;1.60;;;5.10;27.10;;;;;;6302351;22;20168;-83
2021/04/07 11:37:11;;;;;;;5.38;2.00;;;5.20;27.20;;;;;;6303279;22;20179;-79
2021/04/07 11:39:41;;;;;;;3.30;2.30;;;5.30;27.60;;;;;;6301970;22;20176;-80
2021/04/07 11:42:14;;;;;;;8.13;2.25;;;5.30;28.20;;;;;;6297713;22;20208;-80
2021/04/07 11:44:40;;;;;;;7.18;2.63;;;5.40;28.50;;;;;;6299091;22;20165;-79
2021/04/07 11:47:08;;;;;;;3.03;1.98;;;5.40;28.50;;;;;;6300241;22;20181;-79
2021/04/07 11:49:35;;;;;;;4.43;2.03;;;5.50;27.90;;;;;;6302388;22;20184;-80
2021/04/07 11:52:02;;;;;;;4.68;2.15;;;5.40;28.90;;;;;;6300642;22;20205;-79
2021/04/07 11:54:29;;;;;;;5.70;1.83;;;5.60;28.90;;;;;;6297543;22;20181;-79
2021/04/07 11:56:56;;;;;;;2.85;1.70;;;5.20;29.70;;;;;;6303004;22;20165;-77
2021/04/07 11:59:25;;;;;;;4.40;2.70;;;5.10;30.20;;;;;;6303527;22;20168;-79
2021/04/07 12:01:54;;;;;;;8.90;2.35;;;4.90;30.90;;;;;;6303319;22;20253;-76
2021/04/07 12:04:23;;;;;;;3.28;1.65;;;4.70;32.40;;;;;;6304760;22;20157;-76
2021/04/07 12:06:49;;;;;;;3.45;2.45;;;4.50;33.40;;;;;;6302353;22;20181;-79
2021/04/07 12:09:16;;;;;;;6.10;2.63;;;4.50;34.30;;;;;;6300338;22;20181;-81
2021/04/07 12:11:43;;;;;;;3.90;2.60;;;4.40;35.50;;;;;;6300057;22;20220;-77
2021/04/07 12:14:10;;;;;;;3.22;1.92;;;4.40;35.60;;;;;;6300508;22;20181;-81
2021/04/07 12:16:41;;;;;;;5.20;2.80;;;4.30;35.50;;;;;;6301813;22;20195;-83
2021/04/07 12:19:08;;;;;;;4.47;2.35;;;4.30;35.70;;;;;;6301730;22;20173;-84
2021/04/07 12:21:36;;;;;;;4.85;2.95;;;4.40;36.60;;;;;;6301699;22;20204;-79
2021/04/07 12:24:06;;;;;;;4.20;2.58;;;4.60;35.80;;;;;;6290539;22;20188;-82
2021/04/07 12:26:33;;;;;;;7.38;2.70;;;4.50;35.70;;;;;;6324785;22;20247;-85
2021/04/07 12:28:59;;;;;;;7.80;2.53;;;4.40;36.90;;;;;;6315420;22;20203;-83
2021/04/07 12:31:26;;;;;;;5.80;2.83;;;4.40;37.60;;;;;;6313867;22;20234;-80
2021/04/07 12:33:56;;;;;;;5.78;3.20;;;4.50;38.00;;;;;;6281652;22;20201;-82
2021/04/07 12:36:26;;;;;;;9.60;3.45;;;4.60;38.80;;;;;;6281673;22;20177;-82
2021/04/07 12:38:54;;;;;;;5.90;2.90;;;4.60;39.60;;;;;;6286320;22;20252;-84
2021/04/07 12:41:22;;;;;;;4.70;2.83;;;4.60;40.20;;;;;;6293685;22;20261;-80
2021/04/07 12:43:49;;;;;;;10.63;3.22;;;4.50;40.50;;;;;;6296076;22;20201;-85
2021/04/07 12:46:15;;;;;;;6.35;2.80;;;4.30;39.80;;;;;;6302230;22;20165;-84
2021/04/07 12:48:43;;;;;;;7.50;3.20;;;4.10;40.30;;;;;;6298820;22;20177;-82
2021/04/07 12:51:10;;;;;;;3.75;2.50;;;4.10;40.30;;;;;;6295975;22;20225;-80
2021/04/07 12:53:37;;;;;;;8.07;3.20;;;4.20;40.40;;;;;;6294581;22;20197;-80
2021/04/07 12:56:04;;;;;;;6.30;3.15;;;4.30;40.40;;;;;;6295408;22;20181;-82
2021/04/07 12:58:30;;;;;;;5.15;2.70;;;4.10;40.70;;;;;;6296393;22;20196;-81
2021/04/07 13:00:57;;;;;;;6.38;2.80;;;4.00;41.10;;;;;;6295565;22;20227;-81
2021/04/07 13:03:23;;;;;;;4.50;3.15;;;4.00;41.40;;;;;;6299699;22;20181;-82
2021/04/07 13:05:49;;;;;;;4.38;2.63;;;4.00;41.40;;;;;;6301442;22;20191;-81
2021/04/07 13:08:17;;;;;;;8.32;4.43;;;4.00;40.50;;;;;;6295724;22;20181;-81
2021/04/07 13:10:43;;;;;;;5.13;2.60;;;4.00;40.80;;;;;;6285355;22;20173;-82